Terminal Aerodrome Forecast
Issued by NWS Grand Rapids, MI

Current Version | Previous Version | Text Only | Print | Product List | Glossary On
Versions: 1 2 3 4 5 6 7 8 9 10 11 12 13 14 15 16 17 18 19 20 21 22 23 24
635
FTUS43 KGRR 230546
TAFGRR
TAF
KGRR 230546Z 2306/2406 22009KT P6SM BKN040
     FM230900 23011KT P6SM -SHRA OVC025
      TEMPO 2309/2312 1SM TSRA BR OVC015CB
     FM231200 25009KT 4SM -SHRA BR OVC012
     FM231400 28009KT P6SM OVC025
     FM231700 29010KT P6SM BKN035=

USA.gov is the U.S. government's official web portal to all federal, state and local government web resources and services.